Time;durP1;ratioP1;P1;durP2;ratioP2;P2;SDS_P1;SDS_P2;PMS_P1;PMS_P2;Temp;Humidity;BMP_temperature;BMP_pressure;BME280_temperature;BME280_humidity;BME280_pressure;Samples;Min_cycle;Max_cycle;Signal;HPM_P1;HPM_P2
2024/01/26 00:01:14;;;;;;;71.13;38.83;;;5.00;71.80;;;;;;4958928;28;20412;-65
2024/01/26 00:03:40;;;;;;;73.00;39.90;;;5.00;71.90;;;;;;4958810;28;20031;-65
2024/01/26 00:06:06;;;;;;;76.30;39.40;;;4.90;71.80;;;;;;4958645;28;20015;-65
2024/01/26 00:08:33;;;;;;;69.20;38.80;;;4.90;71.90;;;;;;4958514;28;20374;-65
2024/01/26 00:10:59;;;;;;;73.85;37.10;;;4.90;72.00;;;;;;4958447;28;20081;-65
2024/01/26 00:13:25;;;;;;;68.43;35.95;;;4.90;72.00;;;;;;4957422;28;20113;-65
2024/01/26 00:15:50;;;;;;;66.85;35.88;;;4.90;72.40;;;;;;4958680;28;20027;-65
2024/01/26 00:18:16;;;;;;;71.50;37.72;;;4.90;72.50;;;;;;4958532;28;20027;-67
2024/01/26 00:20:43;;;;;;;73.30;39.08;;;4.90;72.40;;;;;;4958293;28;20098;-66
2024/01/26 00:23:09;;;;;;;78.93;41.92;;;4.90;72.60;;;;;;4958288;28;20028;-67
2024/01/26 00:25:35;;;;;;;74.85;39.65;;;4.90;72.70;;;;;;4957937;28;20134;-66
2024/01/26 00:28:01;;;;;;;71.45;39.22;;;4.90;72.60;;;;;;4958196;28;20385;-66
2024/01/26 00:30:27;;;;;;;69.80;36.72;;;4.90;72.90;;;;;;4958369;28;20453;-66
2024/01/26 00:32:54;;;;;;;69.05;37.10;;;4.90;72.70;;;;;;4958343;28;20050;-67
2024/01/26 00:35:20;;;;;;;64.55;36.08;;;4.90;72.80;;;;;;4958482;28;20114;-66
2024/01/26 00:37:46;;;;;;;70.68;36.60;;;4.90;72.70;;;;;;4957070;28;20462;-66
2024/01/26 00:40:12;;;;;;;64.25;35.03;;;4.90;72.10;;;;;;4958453;28;20142;-67
2024/01/26 00:42:38;;;;;;;66.75;34.03;;;4.90;72.20;;;;;;4958416;28;20585;-66
2024/01/26 00:45:04;;;;;;;65.20;33.35;;;4.90;72.30;;;;;;4958063;28;20030;-66
2024/01/26 00:47:30;;;;;;;54.35;30.75;;;4.80;72.10;;;;;;4958320;28;20429;-65
2024/01/26 00:49:56;;;;;;;60.92;33.85;;;4.80;72.30;;;;;;4957786;28;20027;-65
2024/01/26 00:52:22;;;;;;;55.72;29.48;;;4.80;72.20;;;;;;4958013;28;20025;-65
2024/01/26 00:54:48;;;;;;;55.50;30.10;;;4.80;72.20;;;;;;4957822;28;20043;-65
2024/01/26 00:57:14;;;;;;;53.80;28.42;;;4.80;72.80;;;;;;4957716;28;20023;-65
2024/01/26 00:59:41;;;;;;;60.28;31.67;;;4.80;73.60;;;;;;4958067;28;20031;-65
2024/01/26 01:02:08;;;;;;;60.38;32.05;;;4.80;73.30;;;;;;4957851;28;20345;-65
2024/01/26 01:04:35;;;;;;;58.15;29.17;;;4.90;73.10;;;;;;4957420;28;20453;-65
2024/01/26 01:07:01;;;;;;;60.67;31.10;;;4.80;73.10;;;;;;4957466;28;20397;-65
2024/01/26 01:09:27;;;;;;;56.08;31.15;;;4.80;73.70;;;;;;4957555;28;20027;-65
2024/01/26 01:11:53;;;;;;;53.78;28.55;;;4.90;74.40;;;;;;4957494;28;20070;-65
2024/01/26 01:14:21;;;;;;;56.30;30.33;;;4.90;73.70;;;;;;4957705;28;20106;-65
2024/01/26 01:16:47;;;;;;;51.45;28.67;;;4.90;73.80;;;;;;4957434;28;20019;-65
2024/01/26 01:19:13;;;;;;;54.03;28.13;;;4.90;73.90;;;;;;4957556;28;20353;-66
2024/01/26 01:21:40;;;;;;;53.90;28.83;;;4.90;74.10;;;;;;4957580;28;20345;-66
2024/01/26 01:24:06;;;;;;;52.70;28.08;;;4.90;74.10;;;;;;4957483;28;20058;-66
2024/01/26 01:26:31;;;;;;;50.60;28.05;;;4.90;73.40;;;;;;4957559;28;20023;-65
2024/01/26 01:28:57;;;;;;;55.65;30.02;;;4.90;73.30;;;;;;4957252;28;20052;-66
2024/01/26 01:31:23;;;;;;;56.70;29.33;;;4.90;74.10;;;;;;4957252;28;20464;-65
2024/01/26 01:33:49;;;;;;;55.08;28.83;;;4.90;74.00;;;;;;4957342;28;20035;-65
2024/01/26 01:36:16;;;;;;;54.13;29.23;;;4.90;73.60;;;;;;4957766;28;20027;-67
2024/01/26 01:38:42;;;;;;;55.70;29.38;;;4.90;73.20;;;;;;4957108;28;20042;-67
2024/01/26 01:41:08;;;;;;;54.55;29.10;;;4.90;73.20;;;;;;4956196;28;20384;-67
2024/01/26 01:43:34;;;;;;;55.00;29.52;;;4.90;72.90;;;;;;4957089;28;20023;-67
2024/01/26 01:46:00;;;;;;;57.33;30.50;;;4.80;72.50;;;;;;4957102;28;20018;-67
2024/01/26 01:48:26;;;;;;;61.00;31.58;;;4.80;72.80;;;;;;4957890;28;20031;-67
2024/01/26 01:50:53;;;;;;;58.10;30.50;;;4.70;73.00;;;;;;4961561;28;20412;-67
2024/01/26 01:53:20;;;;;;;57.72;30.17;;;4.70;73.10;;;;;;4960918;28;20119;-66
2024/01/26 01:55:46;;;;;;;49.55;28.92;;;4.60;72.80;;;;;;4960944;28;20035;-66
2024/01/26 01:58:13;;;;;;;55.38;29.60;;;4.60;72.80;;;;;;4961083;28;20048;-67
2024/01/26 02:00:41;;;;;;;53.60;28.27;;;4.60;72.70;;;;;;4959904;29;20035;-66
2024/01/26 02:03:07;;;;;;;55.83;28.40;;;4.60;72.70;;;;;;4961104;28;20019;-67
2024/01/26 02:05:34;;;;;;;59.17;29.80;;;4.50;72.40;;;;;;4960716;28;20023;-67
2024/01/26 02:08:00;;;;;;;53.92;27.17;;;4.50;72.40;;;;;;4960712;28;20023;-67
2024/01/26 02:10:26;;;;;;;52.42;28.38;;;4.50;72.50;;;;;;4960680;28;20078;-67
2024/01/26 02:12:51;;;;;;;50.28;26.70;;;4.50;72.50;;;;;;4960626;28;20031;-67
2024/01/26 02:15:17;;;;;;;50.25;27.30;;;4.40;72.40;;;;;;4961053;28;20422;-67
2024/01/26 02:17:44;;;;;;;48.45;26.40;;;4.40;72.40;;;;;;4960992;28;20031;-67
2024/01/26 02:20:10;;;;;;;51.47;28.58;;;4.40;72.60;;;;;;4960728;28;20039;-67
2024/01/26 02:22:37;;;;;;;51.53;29.35;;;4.40;72.70;;;;;;4960455;28;20019;-67
2024/01/26 02:25:04;;;;;;;50.72;29.45;;;4.30;72.50;;;;;;4960067;28;20051;-67
2024/01/26 02:27:30;;;;;;;49.80;27.58;;;4.30;72.40;;;;;;4960359;28;20020;-66
2024/01/26 02:29:56;;;;;;;50.00;27.40;;;4.30;72.20;;;;;;4960579;28;20023;-66
2024/01/26 02:32:22;;;;;;;51.22;28.40;;;4.20;72.40;;;;;;4960539;28;20103;-67
2024/01/26 02:34:48;;;;;;;51.75;28.52;;;4.30;72.50;;;;;;4960205;28;20027;-67
2024/01/26 02:37:14;;;;;;;49.95;28.17;;;4.20;72.50;;;;;;4959209;28;20074;-65
2024/01/26 02:39:40;;;;;;;49.38;26.02;;;4.10;72.70;;;;;;4960125;28;20357;-67
2024/01/26 02:42:06;;;;;;;51.65;26.38;;;4.10;72.70;;;;;;4960364;28;20448;-67
2024/01/26 02:44:33;;;;;;;53.08;27.88;;;4.10;73.00;;;;;;4960294;28;20123;-67
2024/01/26 02:46:59;;;;;;;52.67;28.02;;;4.10;73.00;;;;;;4960539;28;20027;-66
2024/01/26 02:49:25;;;;;;;48.72;24.52;;;4.10;73.20;;;;;;4960224;28;20314;-67
2024/01/26 02:51:51;;;;;;;51.15;26.40;;;4.10;72.90;;;;;;4959946;28;20038;-67
2024/01/26 02:54:17;;;;;;;51.75;27.63;;;4.00;72.90;;;;;;4959852;28;20023;-66
2024/01/26 02:56:43;;;;;;;49.42;26.90;;;4.00;72.90;;;;;;4959846;28;20034;-66
2024/01/26 02:59:09;;;;;;;48.55;27.33;;;4.00;72.90;;;;;;4958785;29;20031;-67
2024/01/26 03:01:35;;;;;;;48.92;27.10;;;4.10;72.80;;;;;;4958836;28;20066;-67
2024/01/26 03:04:00;;;;;;;54.92;29.05;;;4.10;72.70;;;;;;4960064;28;20024;-67
2024/01/26 03:06:26;;;;;;;59.63;30.67;;;4.00;72.80;;;;;;4959948;28;20078;-65
2024/01/26 03:08:52;;;;;;;63.08;29.67;;;4.00;72.90;;;;;;4959929;28;20027;-65
2024/01/26 03:11:18;;;;;;;59.80;31.20;;;4.00;72.80;;;;;;4960153;28;20107;-65
2024/01/26 03:13:44;;;;;;;66.10;30.33;;;4.00;72.60;;;;;;4960048;28;20027;-65
2024/01/26 03:16:10;;;;;;;60.78;31.65;;;4.10;72.60;;;;;;4959499;28;20360;-67
2024/01/26 03:18:36;;;;;;;59.15;31.23;;;4.00;72.80;;;;;;4960155;28;20023;-65
2024/01/26 03:21:03;;;;;;;52.47;28.20;;;4.00;73.00;;;;;;4959691;28;20051;-65
2024/01/26 03:23:28;;;;;;;53.28;29.13;;;3.90;73.00;;;;;;4959807;28;20314;-65
2024/01/26 03:25:54;;;;;;;49.55;27.42;;;3.90;73.30;;;;;;4959227;28;20085;-65
2024/01/26 03:28:20;;;;;;;51.78;27.80;;;3.90;73.20;;;;;;4959328;28;20023;-65
2024/01/26 03:30:46;;;;;;;49.58;27.23;;;3.90;73.00;;;;;;4959788;28;20062;-67
2024/01/26 03:33:12;;;;;;;53.38;27.80;;;3.90;73.10;;;;;;4959253;28;20059;-66
2024/01/26 03:35:38;;;;;;;54.83;26.77;;;3.90;73.00;;;;;;4959375;28;20098;-65
2024/01/26 03:38:04;;;;;;;42.17;23.85;;;3.90;72.50;;;;;;4958736;29;20038;-66
2024/01/26 03:40:30;;;;;;;46.22;25.92;;;3.90;72.50;;;;;;4959566;28;20023;-67
2024/01/26 03:42:55;;;;;;;47.30;26.88;;;3.90;72.70;;;;;;4959281;28;20019;-67
2024/01/26 03:45:21;;;;;;;48.78;24.98;;;3.90;72.80;;;;;;4959179;28;20028;-66
2024/01/26 03:47:48;;;;;;;46.17;24.83;;;3.80;72.90;;;;;;4958964;28;20037;-67
2024/01/26 03:50:13;;;;;;;47.60;25.67;;;3.80;73.00;;;;;;4958922;28;20034;-66
2024/01/26 03:52:39;;;;;;;45.72;23.40;;;3.80;72.70;;;;;;4958875;28;20027;-67
2024/01/26 03:55:06;;;;;;;41.08;22.40;;;3.70;72.70;;;;;;4958827;28;20401;-67
2024/01/26 03:57:33;;;;;;;38.45;22.40;;;3.70;72.80;;;;;;4958953;28;20031;-67
2024/01/26 03:59:59;;;;;;;39.40;22.92;;;3.70;73.20;;;;;;4958959;28;20035;-67
2024/01/26 04:02:25;;;;;;;41.17;22.50;;;3.70;73.30;;;;;;4958693;28;20098;-67
2024/01/26 04:04:51;;;;;;;41.28;23.75;;;3.70;73.20;;;;;;4958592;28;20062;-67
2024/01/26 04:07:17;;;;;;;44.85;25.80;;;3.60;72.90;;;;;;4959124;28;20026;-67
2024/01/26 04:09:43;;;;;;;47.05;23.88;;;3.60;73.00;;;;;;4958789;28;20106;-67
2024/01/26 04:12:09;;;;;;;40.80;22.17;;;3.60;73.10;;;;;;4958881;28;20031;-67
2024/01/26 04:14:35;;;;;;;38.20;22.38;;;3.60;73.20;;;;;;4958894;28;20031;-67
2024/01/26 04:17:01;;;;;;;43.20;22.42;;;3.60;72.90;;;;;;4958425;28;20027;-67
2024/01/26 04:19:27;;;;;;;38.55;21.95;;;3.60;72.80;;;;;;4958564;28;20039;-67
2024/01/26 04:21:52;;;;;;;39.63;21.85;;;3.60;73.10;;;;;;4958855;28;20024;-67
2024/01/26 04:24:19;;;;;;;42.80;21.17;;;3.60;73.30;;;;;;4958183;28;20480;-67
2024/01/26 04:26:45;;;;;;;37.95;22.58;;;3.60;73.10;;;;;;4958487;28;20023;-66
2024/01/26 04:29:10;;;;;;;37.40;20.85;;;3.60;73.00;;;;;;4958410;28;20031;-67
2024/01/26 04:31:45;;;;;;;41.30;20.60;;;3.50;72.90;;;;;;4958162;28;20094;-67
2024/01/26 04:34:11;;;;;;;37.25;19.42;;;3.50;72.70;;;;;;4958224;28;20027;-67
2024/01/26 04:36:37;;;;;;;37.15;20.58;;;3.50;72.90;;;;;;4958333;28;20028;-67
2024/01/26 04:39:03;;;;;;;35.47;19.48;;;3.50;73.30;;;;;;4957911;28;20031;-67
2024/01/26 04:41:29;;;;;;;35.97;19.35;;;3.40;73.10;;;;;;4958483;28;20077;-67
2024/01/26 04:43:55;;;;;;;37.38;20.60;;;3.40;73.00;;;;;;4958128;28;20023;-67
2024/01/26 04:46:21;;;;;;;35.47;18.52;;;3.40;73.00;;;;;;4958101;28;20024;-67
2024/01/26 04:48:47;;;;;;;31.15;17.52;;;3.40;72.80;;;;;;4956886;28;20365;-66
2024/01/26 04:51:13;;;;;;;38.05;18.42;;;3.40;72.90;;;;;;4957793;28;20028;-66
2024/01/26 04:53:39;;;;;;;35.85;18.27;;;3.40;73.00;;;;;;4957722;28;20047;-67
2024/01/26 04:56:05;;;;;;;32.10;18.30;;;3.40;72.90;;;;;;4958292;28;20031;-67
2024/01/26 04:58:31;;;;;;;30.83;17.15;;;3.40;73.30;;;;;;4957631;28;20361;-67
2024/01/26 05:00:57;;;;;;;29.95;17.40;;;3.40;72.90;;;;;;4956669;29;20023;-67
2024/01/26 05:03:22;;;;;;;29.98;16.13;;;3.30;72.80;;;;;;5234688;23;20063;-65
2024/01/26 05:05:48;;;;;;;27.40;16.17;;;3.40;72.80;;;;;;4976932;28;20042;-65
2024/01/26 05:08:14;;;;;;;30.88;16.00;;;3.30;72.90;;;;;;4977365;28;20027;-66
2024/01/26 05:10:40;;;;;;;34.45;17.60;;;3.40;73.10;;;;;;4976812;28;20105;-65
2024/01/26 05:13:07;;;;;;;36.47;18.33;;;3.40;73.30;;;;;;4976990;28;20031;-66
2024/01/26 05:15:33;;;;;;;30.13;15.73;;;3.40;73.30;;;;;;4976974;28;20023;-65
2024/01/26 05:17:59;;;;;;;24.42;14.50;;;3.30;73.20;;;;;;4977159;28;20035;-67
2024/01/26 05:20:25;;;;;;;28.88;16.63;;;3.30;73.10;;;;;;4976698;28;20026;-65
2024/01/26 05:22:50;;;;;;;32.00;16.85;;;3.30;73.40;;;;;;4976522;28;20027;-65
2024/01/26 05:25:17;;;;;;;29.08;17.15;;;3.30;73.20;;;;;;4976741;28;20019;-65
2024/01/26 05:27:43;;;;;;;30.40;16.38;;;3.30;73.60;;;;;;4976862;28;20023;-65
2024/01/26 05:30:08;;;;;;;28.45;16.52;;;3.30;73.60;;;;;;4977100;28;20101;-65
2024/01/26 05:32:34;;;;;;;27.50;15.50;;;3.30;73.50;;;;;;4976704;28;20030;-65
2024/01/26 05:35:00;;;;;;;35.38;17.52;;;3.30;73.10;;;;;;4976490;28;20441;-65
2024/01/26 05:37:26;;;;;;;30.60;16.02;;;3.30;73.20;;;;;;4976729;28;20110;-65
2024/01/26 05:39:52;;;;;;;27.02;15.77;;;3.30;73.40;;;;;;4976890;28;20081;-65
2024/01/26 05:42:18;;;;;;;31.20;16.80;;;3.30;73.50;;;;;;4976384;28;20022;-66
2024/01/26 05:44:44;;;;;;;30.77;16.13;;;3.30;73.20;;;;;;4976468;28;20027;-65
2024/01/26 05:47:10;;;;;;;26.73;15.27;;;3.20;73.10;;;;;;4976933;28;20031;-65
2024/01/26 05:49:35;;;;;;;29.73;15.35;;;3.30;73.10;;;;;;4976610;28;20030;-65
2024/01/26 05:52:02;;;;;;;31.45;15.68;;;3.30;73.20;;;;;;4976811;28;20042;-65
2024/01/26 05:54:28;;;;;;;32.33;16.58;;;3.30;73.40;;;;;;4976319;28;20058;-65
2024/01/26 05:56:53;;;;;;;33.53;16.63;;;3.20;73.10;;;;;;4976333;28;20066;-65
2024/01/26 05:59:19;;;;;;;27.55;16.13;;;3.20;73.00;;;;;;4976216;28;20023;-66
2024/01/26 06:01:45;;;;;;;24.13;14.27;;;3.20;73.10;;;;;;4975299;28;20054;-65
2024/01/26 06:04:11;;;;;;;27.05;14.45;;;3.30;73.00;;;;;;4975910;28;20050;-65
2024/01/26 06:06:37;;;;;;;30.17;16.13;;;3.20;72.80;;;;;;4976144;28;20356;-65
2024/01/26 06:09:03;;;;;;;29.70;16.05;;;3.20;72.70;;;;;;4976225;28;20035;-65
2024/01/26 06:11:29;;;;;;;28.15;15.82;;;3.20;73.00;;;;;;4976179;28;20529;-65
2024/01/26 06:13:55;;;;;;;32.33;15.55;;;3.20;73.00;;;;;;4976081;28;20062;-65
2024/01/26 06:16:21;;;;;;;28.13;15.82;;;3.20;73.00;;;;;;4976387;28;20027;-65
2024/01/26 06:18:47;;;;;;;30.52;16.30;;;3.20;72.90;;;;;;4976039;28;20023;-65
2024/01/26 06:21:13;;;;;;;30.95;15.75;;;3.20;72.90;;;;;;4976079;28;20030;-65
2024/01/26 06:23:39;;;;;;;31.05;17.23;;;3.20;72.90;;;;;;4975969;28;20077;-66
2024/01/26 06:26:05;;;;;;;27.83;16.55;;;3.20;73.20;;;;;;4976302;28;20428;-66
2024/01/26 06:28:32;;;;;;;32.22;17.20;;;3.20;73.20;;;;;;4976250;28;20058;-65
2024/01/26 06:30:58;;;;;;;30.70;17.58;;;3.20;73.10;;;;;;4976505;28;20090;-65
2024/01/26 06:33:24;;;;;;;33.92;18.05;;;3.10;73.40;;;;;;4976150;28;20461;-65
2024/01/26 06:35:56;;;;;;;37.38;21.08;;;3.20;73.50;;;;;;4976751;28;20047;-65
2024/01/26 06:38:23;;;;;;;33.03;19.05;;;3.20;73.60;;;;;;4979961;28;20031;-65
2024/01/26 06:40:48;;;;;;;33.25;19.20;;;3.20;73.80;;;;;;4979456;28;20085;-66
2024/01/26 06:43:16;;;;;;;37.22;19.63;;;3.20;73.60;;;;;;4979583;28;20361;-65
2024/01/26 06:45:43;;;;;;;37.13;19.33;;;3.20;73.50;;;;;;4979321;28;20337;-66
2024/01/26 06:48:09;;;;;;;36.17;19.67;;;3.20;73.40;;;;;;4979315;28;20046;-65
2024/01/26 06:50:35;;;;;;;37.88;21.27;;;3.20;73.60;;;;;;4979577;28;20019;-66
2024/01/26 06:53:01;;;;;;;37.83;20.38;;;3.20;73.90;;;;;;4979442;28;20145;-66
2024/01/26 06:55:27;;;;;;;34.28;20.42;;;3.20;74.00;;;;;;4979556;28;20551;-65
2024/01/26 06:57:53;;;;;;;38.45;20.40;;;3.20;74.10;;;;;;4979138;28;20057;-66
2024/01/26 07:00:19;;;;;;;37.05;20.52;;;3.20;74.00;;;;;;4979136;28;20034;-67
2024/01/26 07:02:46;;;;;;;40.88;22.52;;;3.20;74.10;;;;;;4978864;28;20047;-66
2024/01/26 07:05:12;;;;;;;46.30;23.42;;;3.20;74.10;;;;;;4978101;28;20086;-65
2024/01/26 07:07:38;;;;;;;40.00;21.50;;;3.30;73.80;;;;;;4979035;28;20078;-65
2024/01/26 07:10:05;;;;;;;37.53;21.27;;;3.30;73.90;;;;;;4979505;28;20031;-65
2024/01/26 07:12:31;;;;;;;38.55;22.58;;;3.30;74.20;;;;;;4979079;28;20106;-66
2024/01/26 07:14:57;;;;;;;40.38;22.35;;;3.30;74.30;;;;;;4978902;28;20119;-67
2024/01/26 07:17:22;;;;;;;46.45;23.33;;;3.30;74.30;;;;;;4978829;28;20079;-66
2024/01/26 07:19:48;;;;;;;43.78;22.27;;;3.30;74.40;;;;;;4979306;28;20397;-65
2024/01/26 07:22:14;;;;;;;43.28;23.58;;;3.30;74.30;;;;;;4979237;28;20027;-65
2024/01/26 07:24:40;;;;;;;42.75;25.30;;;3.30;74.10;;;;;;4978909;28;20463;-66
2024/01/26 07:27:06;;;;;;;45.50;25.60;;;3.30;74.50;;;;;;4979242;28;20035;-66
2024/01/26 07:29:32;;;;;;;39.60;23.23;;;3.40;74.50;;;;;;4978624;28;20015;-66
2024/01/26 07:31:58;;;;;;;45.33;25.48;;;3.40;74.50;;;;;;4978545;28;20066;-66
2024/01/26 07:34:24;;;;;;;45.58;24.95;;;3.40;74.50;;;;;;4978517;28;20050;-66
2024/01/26 07:36:50;;;;;;;44.22;24.80;;;3.50;74.50;;;;;;5255936;23;20078;-75
2024/01/26 07:39:16;;;;;;;44.75;24.30;;;3.60;74.50;;;;;;5002876;28;20454;-74
2024/01/26 07:41:42;;;;;;;40.92;21.98;;;3.60;75.00;;;;;;5003160;28;20336;-74
2024/01/26 07:44:08;;;;;;;46.92;23.60;;;3.70;75.20;;;;;;5002590;28;20030;-75
2024/01/26 07:46:34;;;;;;;55.80;27.90;;;3.80;74.70;;;;;;5002114;28;20082;-75
2024/01/26 07:49:03;;;;;;;48.40;24.52;;;3.90;74.60;;;;;;5002562;28;20104;-75
2024/01/26 07:51:29;;;;;;;54.60;27.30;;;4.10;74.30;;;;;;5002329;28;20053;-76
2024/01/26 07:53:55;;;;;;;45.28;23.55;;;4.20;74.80;;;;;;5002165;28;20333;-75
2024/01/26 07:56:21;;;;;;;49.72;27.77;;;4.40;74.30;;;;;;4998451;28;20485;-75
2024/01/26 07:58:47;;;;;;;48.75;27.23;;;4.60;75.00;;;;;;4997957;28;20106;-75
2024/01/26 08:01:13;;;;;;;46.47;25.23;;;4.70;74.70;;;;;;4997949;28;20026;-74
2024/01/26 08:03:40;;;;;;;46.55;27.45;;;4.80;74.80;;;;;;4997371;28;20034;-75
2024/01/26 08:06:06;;;;;;;48.08;27.02;;;4.90;75.20;;;;;;4997797;28;20105;-75
2024/01/26 08:08:32;;;;;;;49.03;27.38;;;5.10;75.70;;;;;;4997243;28;20031;-74
2024/01/26 08:10:59;;;;;;;49.67;27.77;;;5.30;75.80;;;;;;4996303;28;20106;-75
2024/01/26 08:13:26;;;;;;;49.35;28.23;;;5.40;76.00;;;;;;4997434;28;20030;-75
2024/01/26 08:15:52;;;;;;;57.10;29.52;;;5.50;75.80;;;;;;4997598;28;20023;-74
2024/01/26 08:18:18;;;;;;;57.13;30.52;;;5.70;76.10;;;;;;4997059;28;20391;-74
2024/01/26 08:20:44;;;;;;;56.17;29.80;;;5.80;75.90;;;;;;4997042;28;20018;-75
2024/01/26 08:23:10;;;;;;;60.47;32.38;;;5.90;75.90;;;;;;4997240;28;20026;-74
2024/01/26 08:25:36;;;;;;;58.92;29.42;;;6.10;75.80;;;;;;4996839;28;20054;-75
2024/01/26 08:28:02;;;;;;;70.15;32.55;;;6.20;75.60;;;;;;5298809;23;20157;-70
2024/01/26 08:30:28;;;;;;;60.97;29.65;;;6.40;75.20;;;;;;5015808;28;20076;-70
2024/01/26 08:32:54;;;;;;;58.13;30.77;;;6.50;74.60;;;;;;5016467;28;20351;-70
2024/01/26 08:35:20;;;;;;;60.75;30.23;;;6.70;74.50;;;;;;5016651;28;20026;-70
2024/01/26 08:37:46;;;;;;;64.05;30.15;;;6.80;74.00;;;;;;5006431;28;20366;-70
2024/01/26 08:40:13;;;;;;;56.20;29.35;;;6.90;73.70;;;;;;4997237;28;20507;-70
2024/01/26 08:42:40;;;;;;;49.08;26.60;;;7.10;73.40;;;;;;4996509;28;20337;-70
2024/01/26 08:45:06;;;;;;;42.58;23.70;;;7.20;73.20;;;;;;4996018;28;20057;-70
2024/01/26 08:47:32;;;;;;;41.67;23.35;;;7.30;73.30;;;;;;4996715;28;20026;-70
2024/01/26 08:49:58;;;;;;;43.72;25.17;;;7.30;73.00;;;;;;4996473;28;20045;-70
2024/01/26 08:52:24;;;;;;;54.40;27.77;;;7.40;72.70;;;;;;4996733;28;20364;-70
2024/01/26 08:54:50;;;;;;;49.70;27.20;;;7.50;72.30;;;;;;4996409;28;20022;-70
2024/01/26 08:57:16;;;;;;;47.17;25.08;;;7.50;72.10;;;;;;4996338;28;20030;-70
2024/01/26 08:59:44;;;;;;;48.53;26.02;;;7.60;72.30;;;;;;4995568;28;20069;-70
2024/01/26 09:02:10;;;;;;;45.65;24.63;;;7.70;72.10;;;;;;4996821;28;20037;-70
2024/01/26 09:04:37;;;;;;;44.85;24.67;;;7.70;72.20;;;;;;4996823;28;20506;-70
2024/01/26 09:07:03;;;;;;;43.95;24.83;;;7.80;72.20;;;;;;4996133;28;20033;-70
2024/01/26 09:09:29;;;;;;;43.17;23.13;;;7.90;72.20;;;;;;4996440;28;20440;-70
2024/01/26 09:11:56;;;;;;;45.83;23.15;;;8.00;72.10;;;;;;4996399;28;20030;-70
2024/01/26 09:14:22;;;;;;;41.92;23.83;;;8.10;71.90;;;;;;4996845;28;20036;-70
2024/01/26 09:16:51;;;;;;;43.50;25.40;;;8.30;71.80;;;;;;4996002;28;20061;-70
2024/01/26 09:19:18;;;;;;;45.33;25.08;;;8.40;72.30;;;;;;4995918;28;20030;-70
2024/01/26 09:21:45;;;;;;;49.45;25.52;;;8.50;72.00;;;;;;4995983;28;20026;-70
2024/01/26 09:24:12;;;;;;;40.75;23.75;;;8.60;72.10;;;;;;4995929;28;20027;-70
2024/01/26 09:26:39;;;;;;;45.88;25.75;;;8.60;71.50;;;;;;4996126;28;20089;-70
2024/01/26 09:29:06;;;;;;;47.38;26.48;;;8.70;71.40;;;;;;4995691;28;20137;-70
2024/01/26 09:31:32;;;;;;;44.28;24.83;;;8.80;71.20;;;;;;4996141;28;20030;-70
2024/01/26 09:33:58;;;;;;;45.20;25.90;;;8.90;71.00;;;;;;4996167;28;20077;-70
2024/01/26 09:36:24;;;;;;;41.47;24.27;;;8.90;70.60;;;;;;4996370;28;20030;-70
2024/01/26 09:38:50;;;;;;;40.60;23.48;;;9.00;70.60;;;;;;4995939;28;20026;-70
2024/01/26 09:41:17;;;;;;;38.92;22.33;;;9.10;70.50;;;;;;4995746;28;20034;-70
2024/01/26 09:43:43;;;;;;;43.40;23.52;;;9.20;70.40;;;;;;4996135;28;20387;-70
2024/01/26 09:46:09;;;;;;;37.03;20.90;;;9.30;70.10;;;;;;4995978;28;20022;-70
2024/01/26 09:48:36;;;;;;;38.55;21.42;;;9.40;69.90;;;;;;4995701;28;20028;-70
2024/01/26 09:51:01;;;;;;;38.65;20.48;;;9.50;69.80;;;;;;4995971;28;20085;-70
2024/01/26 09:53:29;;;;;;;39.28;21.48;;;9.50;69.30;;;;;;4995705;28;20054;-70
2024/01/26 09:55:58;;;;;;;34.60;20.30;;;9.60;69.10;;;;;;4995726;28;20069;-70
2024/01/26 09:58:24;;;;;;;39.75;23.17;;;9.70;69.10;;;;;;4995479;28;20030;-70
2024/01/26 10:00:53;;;;;;;41.28;22.52;;;9.90;69.20;;;;;;4995617;28;20032;-70
2024/01/26 10:03:23;;;;;;;42.55;23.52;;;9.90;69.10;;;;;;4994946;28;20022;-70
2024/01/26 10:05:49;;;;;;;38.25;21.02;;;10.00;68.80;;;;;;4995798;28;20030;-70
2024/01/26 10:08:15;;;;;;;38.97;21.98;;;10.10;68.90;;;;;;4995430;28;20077;-70
2024/01/26 10:10:41;;;;;;;39.38;22.27;;;10.20;68.60;;;;;;4998086;28;20026;-70
2024/01/26 10:13:07;;;;;;;43.47;22.60;;;10.30;68.60;;;;;;4999430;28;20327;-70
2024/01/26 10:15:33;;;;;;;40.33;21.60;;;10.30;68.50;;;;;;4999284;28;20041;-70
2024/01/26 10:18:00;;;;;;;48.45;25.08;;;10.40;68.40;;;;;;4999440;28;20030;-70
2024/01/26 10:20:26;;;;;;;44.88;23.65;;;10.50;68.30;;;;;;4999311;28;20070;-70
2024/01/26 10:22:53;;;;;;;45.17;24.27;;;10.50;68.00;;;;;;4999504;28;20022;-70
2024/01/26 10:25:19;;;;;;;43.53;23.15;;;10.60;68.00;;;;;;4999440;28;20054;-70
2024/01/26 10:27:45;;;;;;;48.45;26.90;;;10.70;68.00;;;;;;4998914;28;20535;-70
2024/01/26 10:30:13;;;;;;;56.55;29.83;;;10.80;68.00;;;;;;4999100;28;20026;-70
2024/01/26 10:32:40;;;;;;;51.63;28.02;;;10.90;67.90;;;;;;4999025;28;20082;-70
2024/01/26 10:35:07;;;;;;;56.97;30.58;;;10.90;67.60;;;;;;4998015;28;20037;-70
2024/01/26 10:37:35;;;;;;;48.28;27.45;;;11.00;67.70;;;;;;4998826;28;20046;-70
2024/01/26 10:40:04;;;;;;;47.80;26.30;;;11.10;67.50;;;;;;4998885;28;20108;-70
2024/01/26 10:42:30;;;;;;;51.40;29.10;;;11.10;67.50;;;;;;4998769;28;20034;-70
2024/01/26 10:44:57;;;;;;;53.45;29.92;;;11.20;67.40;;;;;;4999374;28;20069;-70
2024/01/26 10:47:26;;;;;;;48.83;27.80;;;11.30;67.30;;;;;;4998915;28;20015;-69
2024/01/26 10:49:56;;;;;;;53.67;27.95;;;11.30;67.00;;;;;;4998778;28;20030;-69
2024/01/26 10:52:22;;;;;;;52.40;30.08;;;11.40;66.80;;;;;;4999232;28;20145;-69
2024/01/26 10:54:51;;;;;;;57.78;32.42;;;11.40;66.80;;;;;;4998650;28;20030;-70
2024/01/26 10:57:21;;;;;;;57.83;33.05;;;11.50;67.10;;;;;;4998577;28;20444;-70
2024/01/26 10:59:48;;;;;;;60.80;31.95;;;11.60;67.10;;;;;;4998333;28;20069;-70
2024/01/26 11:02:18;;;;;;;53.70;30.42;;;11.70;66.70;;;;;;4999029;28;20033;-70
2024/01/26 11:04:44;;;;;;;58.42;32.45;;;11.70;66.50;;;;;;4998720;28;20466;-70
2024/01/26 11:07:11;;;;;;;58.67;34.25;;;11.80;66.50;;;;;;4998280;28;20030;-70
2024/01/26 11:09:41;;;;;;;60.05;31.52;;;11.80;66.10;;;;;;4998254;28;20041;-70
2024/01/26 11:12:27;;;;;;;63.65;35.70;;;11.90;66.20;;;;;;4998202;28;20400;-70
2024/01/26 11:15:15;;;;;;;59.53;35.05;;;11.90;66.10;;;;;;4998180;28;20105;-70
2024/01/26 11:18:00;;;;;;;60.78;34.80;;;12.00;66.30;;;;;;4998059;28;20038;-69
2024/01/26 11:20:30;;;;;;;65.18;35.35;;;12.10;66.10;;;;;;4998351;28;20466;-70
2024/01/26 11:23:09;;;;;;;59.03;32.90;;;12.20;66.00;;;;;;4997452;28;20026;-70
2024/01/26 11:25:41;;;;;;;61.55;34.60;;;12.20;65.90;;;;;;4998013;28;20053;-70
2024/01/26 11:28:08;;;;;;;61.10;30.88;;;12.30;65.60;;;;;;4997733;28;20133;-70
2024/01/26 11:30:35;;;;;;;60.92;35.05;;;12.20;65.50;;;;;;4997841;28;20424;-70
2024/01/26 11:33:02;;;;;;;58.60;32.08;;;12.30;65.50;;;;;;4997830;28;20190;-70
2024/01/26 11:35:28;;;;;;;62.35;35.15;;;12.40;65.60;;;;;;4998082;28;20064;-70
2024/01/26 11:37:58;;;;;;;57.67;33.08;;;12.40;65.40;;;;;;4997876;28;20122;-70
2024/01/26 11:40:23;;;;;;;52.78;31.20;;;12.40;64.90;;;;;;4997731;28;20033;-70
2024/01/26 11:42:51;;;;;;;50.63;28.23;;;12.40;64.20;;;;;;4996658;28;20117;-69
2024/01/26 11:45:43;;;;;;;52.67;27.67;;;12.40;64.40;;;;;;4997934;28;20022;-70
2024/01/26 11:48:11;;;;;;;42.03;25.02;;;12.40;64.10;;;;;;4997834;28;20120;-70
2024/01/26 11:50:39;;;;;;;44.15;26.45;;;12.50;64.20;;;;;;4998062;28;20029;-70
2024/01/26 11:53:05;;;;;;;43.30;24.92;;;12.60;64.00;;;;;;4997767;28;20035;-70
2024/01/26 11:55:32;;;;;;;45.78;27.02;;;12.60;63.80;;;;;;4997504;28;20385;-70
2024/01/26 11:57:58;;;;;;;52.08;31.52;;;12.70;63.70;;;;;;4997500;28;20045;-70
2024/01/26 12:00:24;;;;;;;54.08;30.35;;;12.70;63.30;;;;;;4997556;28;20030;-70
2024/01/26 12:02:50;;;;;;;53.15;31.70;;;12.70;63.70;;;;;;4997249;28;20105;-70
2024/01/26 12:05:16;;;;;;;53.63;30.35;;;12.60;63.70;;;;;;4996692;28;20101;-69
2024/01/26 12:07:42;;;;;;;54.03;31.65;;;12.60;63.80;;;;;;4997463;28;20351;-70
2024/01/26 12:10:16;;;;;;;57.47;32.63;;;12.60;64.20;;;;;;4997428;28;20105;-70
2024/01/26 12:12:42;;;;;;;;;;;12.70;64.30;;;;;;4997867;28;20035;-70
2024/01/26 12:15:10;;;;;;;50.08;28.42;;;12.70;64.40;;;;;;4997069;28;19954;-70
2024/01/26 12:17:36;;;;;;;46.53;25.98;;;12.70;64.30;;;;;;4997100;28;20022;-69
2024/01/26 12:20:08;;;;;;;51.72;27.70;;;12.80;64.10;;;;;;4997125;28;20096;-70
2024/01/26 12:22:34;;;;;;;53.47;30.63;;;12.80;63.80;;;;;;4997456;28;20026;-70
2024/01/26 12:25:02;;;;;;;50.05;27.80;;;12.90;63.90;;;;;;4997589;28;20041;-70
2024/01/26 12:27:29;;;;;;;49.67;28.48;;;12.90;63.60;;;;;;4996458;28;20470;-70
2024/01/26 12:29:55;;;;;;;55.75;32.05;;;12.90;63.40;;;;;;4997100;28;20022;-70
2024/01/26 12:32:21;;;;;;;53.50;32.58;;;12.90;63.50;;;;;;4996706;28;20113;-70